Ancora, New Jersey
Current Conditions -  °F | °C
As of 12:54 PM on Monday 26 Jan 2015 (Local Time) from KACY Reporting Station
Overcast Overcast  
Wind Chill: 26°   Ceiling: 800
Heat Index: 37°   Visibility: 7mi
Dew Point: 34°   Wind: 24mph
Humidity: 89%   Direction: 50°NE
Pressure: 29.74"   Gusts: 33mph
Location:  39.637°N, 74.7602°W
Report Text: KACY 261754Z 05021G29KT 7SM OVC008 03/01 A2974 RMK AO2 PK WND 05032/1744 SLP070 60009 T00280011 10028 21006 56034
Loading
Personal Weather Stations






























Interactive Weather Map New forecast layout! Learn more

10-Day Weather Forecast

Advertisements
Track Severe Weather on mobile